• Join FlightAware (Why Join?)
  • Login
  • US Flag 
08:46AM EDT


 

Airport Tracker/Info


-or-


 

Live Flight TrackerFlight Track Log ✈ LBQ792 ✈ 10-May-2013 ✈ KSYR - KROC

Flight Track Log - Related Links

Times and Time Zones

All times are in EDT time to prevent confusion due to time zone crossing. See the LBQ792 flight status page for this flight to view local times or setup timezone preferences in your user account.

Time Position Orientation Groundspeed Altitude Reporting Facility
EDT Latitude Longitude Course Direction KTS MPH feet Rate Location/Type
10:13PM 43.0925 -76.0797 137° Southeast 138 159 1,600  Level Boston Center
10:14PM 43.0808 -76.1189 248° West 145 167 3,100 1,620 Climbing Boston Center
10:15PM 43.0853 -76.1789 276° West 145 167 4,900 1,380 Climbing Boston Center
10:16PM 43.0872 -76.2417 272° West 160 184 6,000 540 Climbing Boston Center
10:17PM 43.0869 -76.3156 270° West 204 235 6,000  Level Boston Center
10:18PM 43.0861 -76.3950 269° West 218 251 6,000  Level Boston Center
10:20PM 43.0917 -76.4781 275° West 217 250 6,000  Level Boston Center
10:21PM 43.0950 -76.5578 273° West 214 246 6,000  Level Boston Center
10:22PM 43.0933 -76.6992 269° West 213 245 6,000  Level Cleveland Center
10:23PM 43.0939 -76.7817 271° West 216 249 6,000  Level Cleveland Center
10:24PM 43.0925 -76.8700 269° West 222 255 6,000  Level Cleveland Center
10:25PM 43.0933 -76.9553 271° West 224 258 6,000  Level Cleveland Center
10:26PM 43.0939 -77.0406 271° West 227 261 6,000 -60 Level Cleveland Center
10:27PM 43.0922 -77.1289 269° West 227 261 5,900 -600 Descending Cleveland Center
10:28PM 43.0928 -77.2169 271° West 242 278 4,800 -1,140 Descending Cleveland Center
10:29PM 43.0997 -77.3103 276° West 247 284 3,700 -1,140 Descending Cleveland Center
10:30PM 43.1083 -77.4008 277° West 239 275 2,600 -600 Descending Cleveland Center
10:31PM 43.1169 -77.4858 278° West 221 254 2,500 -120 Descending Cleveland Center
10:32PM 43.1233 -77.5708 276° West 207 238 2,400 -600 Descending Cleveland Center
10:33PM 43.1269 -77.6306 275° West 133 153 1,400 -1,020 Descending Cleveland Center
10:35PM 43.1167 -77.6667 270° West  Level FlightAware Approximate
10:42PM 43.1191 -77.6719 270° West  Level Estimated